Time;durP1;ratioP1;P1;durP2;ratioP2;P2;SDS_P1;SDS_P2;PMS_P1;PMS_P2;Temp;Humidity;BMP_temperature;BMP_pressure;BME280_temperature;BME280_humidity;BME280_pressure;Samples;Min_cycle;Max_cycle;Signal;HPM_P1;HPM_P2
2022/07/30 00:00:39;;;;;;;5.30;3.17;;;27.70;76.00;;;;;;5037181;28;20202;-75
2022/07/30 00:03:07;;;;;;;6.28;3.63;;;27.70;75.90;;;;;;5040643;28;20225;-77
2022/07/30 00:05:36;;;;;;;7.10;3.50;;;27.60;75.70;;;;;;5034094;28;20683;-76
2022/07/30 00:08:04;;;;;;;4.57;3.72;;;27.60;75.80;;;;;;5042240;28;20202;-78
2022/07/30 00:10:33;;;;;;;5.07;3.33;;;27.60;75.90;;;;;;5040408;28;20225;-77
2022/07/30 00:13:01;;;;;;;5.72;3.95;;;27.60;75.90;;;;;;5033324;28;20214;-77
2022/07/30 00:15:31;;;;;;;5.88;3.78;;;27.60;75.90;;;;;;5037549;28;20183;-77
2022/07/30 00:18:00;;;;;;;7.20;3.55;;;27.60;75.90;;;;;;5034960;28;20210;-77
2022/07/30 00:20:28;;;;;;;6.00;3.63;;;27.60;76.10;;;;;;5039677;28;20222;-77
2022/07/30 00:22:59;;;;;;;8.52;3.45;;;27.60;76.00;;;;;;5037592;28;20215;-77
2022/07/30 00:25:27;;;;;;;5.40;3.25;;;27.60;76.00;;;;;;5035741;28;20196;-77
2022/07/30 00:27:55;;;;;;;6.03;3.65;;;27.60;76.10;;;;;;5032816;28;20183;-78
2022/07/30 00:30:24;;;;;;;5.07;3.30;;;27.50;76.00;;;;;;5039795;28;20203;-78
2022/07/30 00:32:54;;;;;;;6.90;3.83;;;27.50;76.00;;;;;;5036731;28;20201;-77
2022/07/30 00:35:23;;;;;;;5.18;3.35;;;27.50;76.30;;;;;;5033949;28;20205;-77
2022/07/30 00:37:54;;;;;;;5.22;3.22;;;27.50;76.60;;;;;;5036454;28;20965;-76
2022/07/30 00:40:23;;;;;;;6.28;3.15;;;27.40;76.40;;;;;;5028223;28;20273;-76
2022/07/30 00:42:51;;;;;;;4.47;3.55;;;27.40;76.30;;;;;;5041233;28;20219;-77
2022/07/30 00:45:20;;;;;;;5.82;3.60;;;27.40;76.30;;;;;;5039667;28;20210;-76
2022/07/30 00:47:48;;;;;;;4.68;3.10;;;27.30;75.60;;;;;;5039470;28;20198;-78
2022/07/30 00:50:18;;;;;;;6.15;2.97;;;27.30;76.40;;;;;;5043345;28;20199;-78
2022/07/30 00:52:48;;;;;;;5.32;3.25;;;27.30;77.20;;;;;;5044836;28;20285;-78
2022/07/30 00:55:17;;;;;;;4.90;3.03;;;27.30;76.10;;;;;;5036429;28;20689;-77
2022/07/30 00:57:45;;;;;;;5.60;3.40;;;27.30;76.00;;;;;;5038419;28;20207;-78
2022/07/30 01:00:16;;;;;;;7.82;3.30;;;27.30;76.10;;;;;;5034107;28;20199;-76
2022/07/30 01:02:45;;;;;;;5.57;2.92;;;27.30;76.40;;;;;;5034429;28;20532;-77
2022/07/30 01:05:14;;;;;;;5.38;3.45;;;27.20;76.70;;;;;;5040507;28;20210;-77
2022/07/30 01:07:44;;;;;;;4.57;3.20;;;27.30;76.60;;;;;;5034257;28;20183;-77
2022/07/30 01:10:14;;;;;;;5.60;3.53;;;27.20;76.30;;;;;;5039536;28;20187;-79
2022/07/30 01:12:43;;;;;;;4.35;2.90;;;27.20;76.30;;;;;;5036693;28;20191;-77
2022/07/30 01:15:13;;;;;;;4.43;3.15;;;27.20;76.30;;;;;;5033823;28;20382;-76
2022/07/30 01:17:41;;;;;;;5.90;3.28;;;27.20;77.20;;;;;;5036770;28;20199;-78
2022/07/30 01:20:15;;;;;;;4.32;3.00;;;27.20;76.30;;;;;;5036037;28;20197;-78
2022/07/30 01:22:55;;;;;;;5.72;3.20;;;27.20;76.30;;;;;;5040382;28;21483;-77
2022/07/30 01:25:42;;;;;;;6.93;3.22;;;27.20;77.20;;;;;;5044614;28;20195;-78
2022/07/30 01:28:14;;;;;;;3.83;2.80;;;27.10;76.30;;;;;;5032725;28;20279;-78
2022/07/30 01:30:46;;;;;;;4.50;3.03;;;27.10;76.50;;;;;;5038720;28;20245;-76
2022/07/30 01:33:21;;;;;;;5.80;3.15;;;27.10;76.20;;;;;;5038773;28;20198;-76
2022/07/30 01:35:51;;;;;;;4.93;3.17;;;27.10;76.20;;;;;;5040251;28;20202;-77
2022/07/30 01:38:23;;;;;;;5.00;3.05;;;27.10;76.50;;;;;;5034695;28;20192;-77
2022/07/30 01:40:54;;;;;;;5.40;3.65;;;27.10;76.50;;;;;;5038241;28;20233;-78
2022/07/30 01:43:24;;;;;;;5.18;3.13;;;27.00;76.40;;;;;;5034756;28;20211;-77
2022/07/30 01:45:55;;;;;;;4.97;3.13;;;27.00;76.40;;;;;;5045038;28;20659;-77
2022/07/30 01:48:25;;;;;;;4.22;3.15;;;27.00;76.40;;;;;;5041037;28;20183;-76
2022/07/30 01:50:56;;;;;;;5.25;3.60;;;27.00;76.40;;;;;;5034995;28;20203;-78
2022/07/30 01:53:29;;;;;;;5.00;3.22;;;27.00;76.60;;;;;;5034084;28;20194;-76
2022/07/30 01:56:00;;;;;;;5.72;3.60;;;27.00;76.50;;;;;;5035247;28;20203;-76
2022/07/30 01:58:32;;;;;;;4.60;3.10;;;27.00;76.70;;;;;;5038374;28;20203;-77
2022/07/30 02:01:00;;;;;;;5.32;3.28;;;27.00;76.70;;;;;;5031376;28;20257;-77
2022/07/30 02:03:30;;;;;;;4.85;3.22;;;27.00;76.80;;;;;;5040880;28;20233;-77
2022/07/30 02:06:05;;;;;;;4.50;3.42;;;26.90;77.10;;;;;;5043463;28;20199;-77
2022/07/30 02:08:38;;;;;;;4.70;3.15;;;26.90;77.20;;;;;;5040302;28;20186;-77
2022/07/30 02:11:10;;;;;;;4.07;2.33;;;26.90;77.30;;;;;;5044725;28;20192;-76
2022/07/30 02:13:44;;;;;;;5.05;3.47;;;26.80;77.70;;;;;;5039076;28;21043;-76
2022/07/30 02:16:18;;;;;;;4.88;3.30;;;26.80;77.70;;;;;;5039859;28;20195;-77
2022/07/30 02:18:56;;;;;;;4.20;2.65;;;26.70;78.00;;;;;;5036845;28;20199;-77
2022/07/30 02:21:27;;;;;;;6.05;3.33;;;26.70;77.90;;;;;;5038090;28;20280;-76
2022/07/30 02:24:07;;;;;;;5.07;3.25;;;26.70;78.20;;;;;;5029462;28;20225;-77
2022/07/30 02:26:39;;;;;;;5.38;3.15;;;26.70;78.30;;;;;;5028432;28;20191;-77
2022/07/30 02:29:08;;;;;;;7.53;3.45;;;26.60;78.00;;;;;;5034386;28;20187;-78
2022/07/30 02:31:39;;;;;;;7.72;3.38;;;26.60;77.90;;;;;;5040561;28;20270;-78
2022/07/30 02:34:09;;;;;;;6.38;3.60;;;26.60;78.20;;;;;;5038689;28;20195;-77
2022/07/30 02:36:39;;;;;;;7.40;3.50;;;26.60;78.40;;;;;;5034974;28;20191;-76
2022/07/30 02:39:08;;;;;;;7.10;3.88;;;26.60;78.30;;;;;;5037008;28;20219;-77
2022/07/30 02:41:39;;;;;;;5.75;3.65;;;26.60;78.30;;;;;;5047030;28;20198;-77
2022/07/30 02:44:10;;;;;;;5.95;3.22;;;26.50;78.40;;;;;;5040536;28;20206;-75
2022/07/30 02:46:39;;;;;;;5.68;3.55;;;26.50;78.30;;;;;;5031713;28;20202;-77
2022/07/30 02:49:09;;;;;;;7.68;3.80;;;26.50;78.30;;;;;;5037390;28;20198;-75
2022/07/30 02:51:39;;;;;;;7.22;3.75;;;26.50;78.30;;;;;;5043065;28;20295;-75
2022/07/30 02:54:08;;;;;;;6.28;3.72;;;26.50;78.30;;;;;;5039882;28;20195;-77
2022/07/30 02:56:42;;;;;;;8.05;3.72;;;26.50;78.20;;;;;;5037493;28;20193;-78
2022/07/30 02:59:12;;;;;;;6.43;3.83;;;26.50;78.60;;;;;;5034907;28;20183;-77
2022/07/30 03:01:42;;;;;;;7.45;3.65;;;26.50;78.50;;;;;;5043145;28;20756;-77
2022/07/30 03:04:13;;;;;;;9.50;3.65;;;26.50;79.30;;;;;;5034419;28;20224;-76
2022/07/30 03:06:43;;;;;;;5.55;3.67;;;26.50;78.40;;;;;;5029564;28;20196;-77
2022/07/30 03:09:13;;;;;;;7.03;3.58;;;26.40;78.50;;;;;;5036250;28;20191;-76
2022/07/30 03:11:47;;;;;;;5.38;3.70;;;26.40;78.60;;;;;;5032647;28;20202;-78
2022/07/30 03:14:15;;;;;;;5.93;3.60;;;26.40;78.50;;;;;;5038226;28;20594;-77
2022/07/30 03:16:47;;;;;;;5.90;4.05;;;26.40;78.40;;;;;;5031204;28;20195;-77
2022/07/30 03:19:20;;;;;;;5.20;3.33;;;26.40;78.50;;;;;;5037889;28;20203;-78
2022/07/30 03:21:49;;;;;;;5.45;3.78;;;26.40;78.50;;;;;;5029973;28;20202;-78
2022/07/30 03:24:19;;;;;;;8.65;4.05;;;26.40;78.50;;;;;;5040569;28;20226;-78
2022/07/30 03:26:50;;;;;;;5.28;3.75;;;26.40;78.60;;;;;;5033604;28;20198;-78
2022/07/30 03:29:20;;;;;;;5.53;3.70;;;26.40;78.50;;;;;;5031195;28;20859;-77
2022/07/30 03:31:49;;;;;;;5.55;3.50;;;26.40;78.30;;;;;;5037353;28;20218;-76
2022/07/30 03:34:19;;;;;;;6.65;4.30;;;26.40;78.20;;;;;;5032280;28;20256;-77
2022/07/30 03:36:50;;;;;;;5.47;3.75;;;26.40;78.20;;;;;;5040253;28;20203;-77
2022/07/30 03:39:19;;;;;;;7.28;3.38;;;26.40;78.30;;;;;;5033281;28;20238;-77
2022/07/30 03:41:50;;;;;;;6.47;3.58;;;26.40;78.20;;;;;;5029701;28;20195;-78
2022/07/30 03:44:22;;;;;;;7.63;3.42;;;26.40;78.10;;;;;;5027853;28;20313;-78
2022/07/30 03:46:53;;;;;;;4.55;3.40;;;26.40;78.20;;;;;;5033658;28;20944;-81
2022/07/30 03:49:23;;;;;;;6.78;4.18;;;26.40;78.30;;;;;;5034336;28;20218;-77
2022/07/30 03:51:53;;;;;;;6.63;4.00;;;26.40;78.30;;;;;;5042310;28;20621;-77
2022/07/30 03:54:22;;;;;;;6.80;4.13;;;26.40;78.20;;;;;;5034559;28;20187;-78
2022/07/30 03:56:52;;;;;;;7.32;3.75;;;26.40;78.20;;;;;;5034050;28;20770;-78
2022/07/30 03:59:20;;;;;;;8.65;3.78;;;26.40;78.30;;;;;;5025946;28;20203;-78
2022/07/30 04:01:49;;;;;;;6.93;3.95;;;26.40;78.20;;;;;;5033650;28;20210;-78
2022/07/30 04:04:18;;;;;;;5.65;3.72;;;26.40;78.20;;;;;;5029916;28;20203;-77
2022/07/30 04:06:46;;;;;;;5.30;3.67;;;26.50;78.20;;;;;;5036123;28;20199;-78
2022/07/30 04:09:15;;;;;;;6.70;4.03;;;26.50;78.20;;;;;;5040448;28;20187;-77
2022/07/30 04:11:43;;;;;;;8.05;4.10;;;26.50;78.30;;;;;;5041421;28;20196;-78
2022/07/30 04:14:13;;;;;;;6.97;3.80;;;26.50;78.20;;;;;;5041311;28;20201;-78
2022/07/30 04:16:46;;;;;;;7.63;4.00;;;26.50;78.20;;;;;;5033686;28;20194;-79
2022/07/30 04:19:19;;;;;;;5.47;3.42;;;26.50;78.20;;;;;;5037224;28;20215;-80
2022/07/30 04:21:49;;;;;;;6.10;3.95;;;26.50;78.10;;;;;;5031760;28;20195;-78
2022/07/30 04:24:20;;;;;;;6.53;4.28;;;26.50;78.10;;;;;;5031342;28;20198;-78
2022/07/30 04:26:49;;;;;;;6.65;3.97;;;26.50;78.00;;;;;;5040216;28;20282;-77
2022/07/30 04:29:20;;;;;;;7.15;3.95;;;26.60;78.30;;;;;;5036845;28;20199;-78
2022/07/30 04:31:53;;;;;;;7.28;4.10;;;26.60;78.50;;;;;;5045018;28;20249;-79
2022/07/30 04:34:21;;;;;;;6.43;4.32;;;26.60;78.40;;;;;;5042914;28;20286;-78
2022/07/30 04:36:50;;;;;;;5.72;3.85;;;26.60;78.40;;;;;;5040344;28;20205;-78
2022/07/30 04:39:18;;;;;;;8.48;3.65;;;26.60;78.30;;;;;;5036168;28;20216;-78
2022/07/30 04:41:47;;;;;;;8.82;4.47;;;26.60;78.40;;;;;;5042938;28;20202;-78
2022/07/30 04:44:19;;;;;;;7.88;3.88;;;26.70;78.50;;;;;;5043844;28;20278;-77
2022/07/30 04:46:48;;;;;;;5.88;3.70;;;26.70;78.30;;;;;;5036972;28;20215;-77
2022/07/30 04:49:18;;;;;;;6.22;4.20;;;26.70;78.30;;;;;;5039826;28;20219;-77
2022/07/30 04:51:49;;;;;;;7.20;4.50;;;26.70;78.20;;;;;;5041635;28;20201;-77
2022/07/30 04:54:20;;;;;;;8.35;4.30;;;26.90;78.20;;;;;;5040562;28;20810;-77
2022/07/30 04:56:49;;;;;;;7.70;3.92;;;26.90;78.10;;;;;;5043732;28;20707;-77
2022/07/30 04:59:29;;;;;;;6.95;3.72;;;26.90;78.10;;;;;;5044242;28;20330;-77
2022/07/30 05:02:05;;;;;;;5.43;3.63;;;26.90;78.00;;;;;;5043926;28;20277;-78
2022/07/30 05:04:36;;;;;;;5.80;3.88;;;27.00;77.90;;;;;;5039599;28;20274;-78
2022/07/30 05:07:05;;;;;;;9.52;4.00;;;27.10;77.90;;;;;;5041859;28;20763;-77
2022/07/30 05:09:34;;;;;;;10.65;3.65;;;27.10;77.80;;;;;;5044319;28;20656;-77
2022/07/30 05:12:03;;;;;;;11.80;4.20;;;27.10;77.70;;;;;;5033820;28;20199;-77
2022/07/30 05:14:33;;;;;;;6.85;4.05;;;27.20;77.60;;;;;;5044580;28;20206;-77
2022/07/30 05:17:02;;;;;;;6.07;3.90;;;27.30;77.60;;;;;;5042312;28;20961;-79
2022/07/30 05:19:31;;;;;;;9.45;4.30;;;27.30;77.50;;;;;;5042077;28;20199;-77
2022/07/30 05:21:59;;;;;;;8.52;4.28;;;27.40;77.50;;;;;;5041645;28;20202;-78
2022/07/30 05:24:33;;;;;;;6.05;4.07;;;27.40;77.40;;;;;;5042126;28;20190;-77
2022/07/30 05:27:02;;;;;;;8.80;4.63;;;27.40;77.40;;;;;;5034959;28;20227;-77
2022/07/30 05:29:32;;;;;;;6.85;4.00;;;27.50;77.30;;;;;;5045968;28;20195;-77
2022/07/30 05:32:01;;;;;;;6.30;4.30;;;27.50;77.30;;;;;;5039645;28;20199;-78
2022/07/30 05:34:30;;;;;;;7.90;4.03;;;27.60;77.20;;;;;;5040725;28;20227;-78
2022/07/30 05:36:59;;;;;;;13.98;4.35;;;27.60;77.10;;;;;;5042758;28;20953;-77
2022/07/30 05:39:28;;;;;;;8.30;4.28;;;27.60;77.00;;;;;;5042375;28;20225;-77
2022/07/30 05:41:56;;;;;;;8.05;4.57;;;27.70;76.90;;;;;;5044473;28;20188;-78
2022/07/30 05:44:24;;;;;;;9.95;4.28;;;27.70;76.90;;;;;;5044215;28;20195;-78
2022/07/30 05:46:54;;;;;;;8.60;4.22;;;27.80;76.90;;;;;;5042644;28;20215;-78
2022/07/30 05:49:23;;;;;;;6.28;3.95;;;27.80;76.80;;;;;;5043556;28;20196;-78
2022/07/30 05:51:51;;;;;;;9.20;4.50;;;28.00;76.70;;;;;;5039470;28;20223;-78
2022/07/30 05:54:19;;;;;;;9.88;4.00;;;28.00;76.60;;;;;;5041031;28;20199;-78
2022/07/30 05:56:51;;;;;;;7.95;4.80;;;28.10;76.50;;;;;;5032281;28;20634;-78
2022/07/30 05:59:20;;;;;;;7.05;4.40;;;28.10;76.30;;;;;;5039661;28;20190;-76
2022/07/30 06:01:48;;;;;;;7.88;4.70;;;28.20;76.20;;;;;;5042424;28;20199;-78
2022/07/30 06:04:18;;;;;;;8.30;3.92;;;28.20;76.00;;;;;;5046190;28;20195;-77
2022/07/30 06:06:47;;;;;;;10.07;3.90;;;28.30;75.90;;;;;;5040735;28;20214;-78
2022/07/30 06:09:16;;;;;;;9.35;3.70;;;28.30;75.60;;;;;;5038065;28;20195;-79
2022/07/30 06:11:53;;;;;;;8.70;4.03;;;28.40;75.50;;;;;;5040127;28;20183;-80
2022/07/30 06:14:24;;;;;;;5.75;4.13;;;28.50;75.30;;;;;;5054995;28;20187;-78
2022/07/30 06:16:53;;;;;;;7.75;4.20;;;28.50;75.10;;;;;;5045455;28;20215;-79
2022/07/30 06:19:22;;;;;;;6.97;4.13;;;28.50;75.00;;;;;;5047835;28;20567;-79
2022/07/30 06:21:51;;;;;;;6.50;4.32;;;28.60;75.00;;;;;;5051932;28;20193;-77
2022/07/30 06:24:34;;;;;;;6.07;3.63;;;28.60;74.60;;;;;;5044136;28;20191;-78
2022/07/30 06:27:02;;;;;;;12.75;4.38;;;28.70;74.50;;;;;;5047815;28;20219;-77
2022/07/30 06:29:31;;;;;;;7.68;4.03;;;28.80;74.50;;;;;;5056205;28;20212;-78
2022/07/30 06:32:00;;;;;;;9.23;4.38;;;28.80;74.40;;;;;;5047330;28;20643;-78
2022/07/30 06:34:32;;;;;;;6.35;4.22;;;28.80;74.00;;;;;;5043804;28;20981;-77
2022/07/30 06:37:00;;;;;;;8.25;3.85;;;28.90;73.90;;;;;;5040318;28;20199;-77
2022/07/30 06:39:29;;;;;;;7.05;3.65;;;29.00;74.00;;;;;;5046276;28;20807;-77
2022/07/30 06:42:18;;;;;;;7.95;4.22;;;29.00;73.80;;;;;;5043955;28;20203;-77
2022/07/30 06:44:46;;;;;;;7.03;3.95;;;29.10;73.80;;;;;;5044509;28;20206;-78
2022/07/30 06:47:20;;;;;;;7.07;4.10;;;29.20;73.40;;;;;;5042006;28;20223;-78
2022/07/30 06:49:49;;;;;;;5.97;3.70;;;29.20;73.00;;;;;;5046551;28;20194;-78
2022/07/30 06:52:18;;;;;;;5.88;3.67;;;29.30;73.00;;;;;;5043618;28;20752;-78
2022/07/30 06:54:47;;;;;;;5.28;3.70;;;29.30;72.70;;;;;;5044045;28;20199;-78
2022/07/30 06:57:15;;;;;;;8.55;3.90;;;29.40;72.60;;;;;;5045295;28;20195;-77
2022/07/30 06:59:44;;;;;;;6.72;4.57;;;29.40;72.30;;;;;;5044781;28;20196;-77
2022/07/30 07:02:24;;;;;;;6.85;4.28;;;29.50;72.10;;;;;;5043993;28;20762;-78
2022/07/30 07:04:54;;;;;;;6.65;4.18;;;29.50;71.60;;;;;;5042948;28;20198;-78
2022/07/30 07:07:23;;;;;;;6.13;3.85;;;29.60;70.80;;;;;;5043002;28;20225;-77
2022/07/30 07:10:09;;;;;;;5.20;3.78;;;29.70;70.70;;;;;;5042217;28;20317;-79
2022/07/30 07:12:38;;;;;;;6.05;4.03;;;29.70;70.50;;;;;;5057049;28;20300;-78
2022/07/30 07:15:07;;;;;;;5.50;3.88;;;29.80;70.50;;;;;;5047924;28;20195;-77
2022/07/30 07:17:35;;;;;;;5.93;3.80;;;29.80;70.20;;;;;;5041893;28;20202;-76
2022/07/30 07:20:06;;;;;;;7.15;3.85;;;29.90;70.00;;;;;;5034963;28;20199;-79
2022/07/30 07:22:35;;;;;;;5.97;3.83;;;29.90;69.70;;;;;;5044377;28;20182;-76
2022/07/30 07:25:06;;;;;;;7.15;4.05;;;30.00;69.90;;;;;;5038363;28;20207;-78
2022/07/30 07:27:37;;;;;;;5.22;3.70;;;30.00;69.30;;;;;;5045209;28;20218;-76
2022/07/30 07:30:07;;;;;;;8.48;3.60;;;30.00;68.50;;;;;;5046257;28;20202;-77
2022/07/30 07:32:36;;;;;;;7.25;3.88;;;30.10;68.20;;;;;;5043334;28;20195;-76
2022/07/30 07:35:07;;;;;;;5.50;4.30;;;30.10;68.00;;;;;;5030069;28;20231;-76
2022/07/30 07:37:35;;;;;;;6.78;4.20;;;30.20;67.90;;;;;;5043368;28;20194;-77
2022/07/30 07:40:05;;;;;;;5.70;3.97;;;30.30;68.10;;;;;;5048984;28;20251;-78
2022/07/30 07:42:33;;;;;;;4.97;3.35;;;30.30;68.00;;;;;;5043212;28;20209;-77
2022/07/30 07:45:02;;;;;;;7.70;3.80;;;30.40;67.70;;;;;;5044808;28;20213;-76
2022/07/30 07:47:30;;;;;;;7.55;3.42;;;30.40;67.20;;;;;;5044632;28;20238;-77
2022/07/30 07:49:59;;;;;;;5.30;3.55;;;30.50;67.00;;;;;;5052434;28;20195;-78
2022/07/30 07:52:28;;;;;;;5.15;3.33;;;30.50;66.90;;;;;;5037301;28;20196;-77
2022/07/30 07:54:57;;;;;;;7.13;3.60;;;30.60;66.70;;;;;;5037150;28;20195;-76
2022/07/30 07:57:26;;;;;;;7.22;3.75;;;30.60;66.60;;;;;;5040363;28;20201;-77
2022/07/30 07:59:55;;;;;;;5.47;3.78;;;30.70;66.60;;;;;;5043871;28;20190;-75
2022/07/30 08:02:23;;;;;;;7.68;3.80;;;30.80;66.30;;;;;;5055846;28;20190;-75
2022/07/30 08:04:51;;;;;;;5.30;3.70;;;30.80;66.00;;;;;;5041170;28;20218;-77
2022/07/30 08:07:20;;;;;;;7.28;3.40;;;30.80;65.50;;;;;;5040185;28;20219;-77
2022/07/30 08:09:50;;;;;;;7.10;3.60;;;30.90;64.40;;;;;;5049434;28;20194;-77
2022/07/30 08:12:18;;;;;;;7.30;3.83;;;30.90;64.40;;;;;;5046376;28;20195;-76
2022/07/30 08:14:47;;;;;;;6.78;3.58;;;30.90;64.00;;;;;;5044357;28;20855;-76
2022/07/30 08:17:15;;;;;;;7.57;3.67;;;30.90;63.60;;;;;;5055043;28;20245;-76
2022/07/30 08:19:44;;;;;;;6.88;3.50;;;30.90;63.90;;;;;;5055970;28;20214;-77
2022/07/30 08:22:12;;;;;;;7.95;3.42;;;31.00;63.80;;;;;;5049784;28;20206;-76
2022/07/30 08:24:41;;;;;;;8.25;3.30;;;31.00;63.70;;;;;;5052546;28;20199;-75
2022/07/30 08:27:10;;;;;;;7.30;3.40;;;31.10;63.70;;;;;;5046870;28;20215;-75
2022/07/30 08:29:39;;;;;;;8.27;3.22;;;31.10;63.00;;;;;;5046382;28;20202;-75
2022/07/30 08:32:07;;;;;;;5.20;3.17;;;31.20;62.90;;;;;;5047904;28;20207;-75
2022/07/30 08:34:36;;;;;;;5.35;3.17;;;31.20;62.50;;;;;;5046597;28;20602;-77
2022/07/30 08:37:05;;;;;;;5.80;3.00;;;31.30;61.50;;;;;;5040146;28;20829;-76
2022/07/30 08:39:34;;;;;;;9.65;3.30;;;31.30;61.40;;;;;;5040600;28;20227;-76
2022/07/30 08:42:03;;;;;;;4.18;3.00;;;31.40;61.60;;;;;;5049285;28;20195;-76
2022/07/30 08:44:36;;;;;;;4.45;2.70;;;31.50;60.70;;;;;;5044545;28;20201;-76
2022/07/30 08:47:07;;;;;;;6.82;3.38;;;31.50;59.60;;;;;;5036004;28;20215;-76
2022/07/30 08:49:36;;;;;;;5.68;3.22;;;31.60;60.00;;;;;;5043581;28;20191;-75
2022/07/30 08:52:07;;;;;;;5.60;3.00;;;31.60;59.80;;;;;;5032348;28;20202;-75
2022/07/30 08:54:36;;;;;;;4.85;3.05;;;31.70;60.10;;;;;;5039230;28;20187;-75
2022/07/30 08:57:05;;;;;;;9.65;3.08;;;31.70;59.40;;;;;;5043131;28;20195;-75
2022/07/30 08:59:37;;;;;;;3.70;2.90;;;31.70;58.40;;;;;;5044743;28;20203;-76
2022/07/30 09:02:27;;;;;;;4.45;3.00;;;31.70;58.10;;;;;;5043895;28;20204;-77
2022/07/30 09:04:56;;;;;;;5.82;3.17;;;31.80;58.50;;;;;;5045140;28;20561;-76
2022/07/30 09:07:25;;;;;;;6.35;3.25;;;31.90;58.70;;;;;;5038814;28;20222;-75
2022/07/30 09:09:54;;;;;;;4.90;3.10;;;31.90;58.80;;;;;;5045184;28;20193;-75
2022/07/30 09:12:40;;;;;;;6.43;3.22;;;32.00;58.90;;;;;;5040332;28;20210;-76
2022/07/30 09:15:14;;;;;;;7.10;2.58;;;32.10;58.60;;;;;;5044549;28;20187;-76
2022/07/30 09:17:50;;;;;;;6.60;3.30;;;32.10;58.60;;;;;;5043883;28;20198;-75
2022/07/30 09:20:20;;;;;;;4.32;2.95;;;32.20;58.20;;;;;;5049895;28;20178;-75
2022/07/30 09:22:50;;;;;;;6.38;3.22;;;32.20;57.80;;;;;;5044778;28;20282;-76
2022/07/30 09:25:34;;;;;;;6.30;3.10;;;32.30;57.70;;;;;;5044409;28;20190;-75
2022/07/30 09:28:04;;;;;;;8.68;3.22;;;32.30;57.00;;;;;;5041345;28;20217;-76
2022/07/30 09:30:47;;;;;;;4.15;3.17;;;32.30;57.10;;;;;;5035878;28;20191;-77
2022/07/30 09:33:15;;;;;;;4.82;3.38;;;32.50;57.30;;;;;;5042238;28;20187;-77
2022/07/30 09:35:45;;;;;;;8.23;3.05;;;32.50;56.70;;;;;;5046845;28;20202;-77
2022/07/30 09:38:13;;;;;;;3.97;2.67;;;32.50;56.90;;;;;;5055356;28;20195;-76
2022/07/30 09:40:50;;;;;;;7.95;3.42;;;32.50;56.50;;;;;;5040720;28;20704;-77
2022/07/30 09:43:26;;;;;;;7.65;3.17;;;32.60;56.60;;;;;;5045876;28;20278;-75
2022/07/30 09:45:59;;;;;;;4.72;3.40;;;32.70;56.80;;;;;;5049056;28;20960;-76
2022/07/30 09:48:28;;;;;;;4.30;2.95;;;32.70;56.60;;;;;;5044823;28;20207;-77
2022/07/30 09:50:59;;;;;;;6.60;3.75;;;32.80;56.50;;;;;;5037859;28;20214;-76
2022/07/30 09:53:28;;;;;;;6.40;3.10;;;32.80;56.00;;;;;;5044288;28;20229;-76
2022/07/30 09:55:58;;;;;;;5.68;3.60;;;32.90;55.60;;;;;;5042570;28;20205;-77
2022/07/30 09:58:38;;;;;;;4.97;3.35;;;32.90;55.50;;;;;;5039442;28;20200;-78
2022/07/30 10:01:08;;;;;;;6.03;3.42;;;33.00;55.70;;;;;;5040998;28;20187;-76
2022/07/30 10:03:42;;;;;;;5.35;3.22;;;33.10;55.60;;;;;;5047525;28;20838;-77
2022/07/30 10:06:14;;;;;;;4.43;3.05;;;33.10;54.90;;;;;;5043406;28;20289;-78
2022/07/30 10:08:44;;;;;;;3.72;2.75;;;33.20;55.30;;;;;;5048961;28;20250;-77
2022/07/30 10:11:17;;;;;;;6.22;3.47;;;33.30;55.30;;;;;;5033602;28;20195;-75
2022/07/30 10:13:53;;;;;;;5.47;3.47;;;33.30;54.30;;;;;;5043145;28;20237;-77
2022/07/30 10:16:26;;;;;;;4.05;3.15;;;33.40;54.60;;;;;;5041856;28;20707;-77
2022/07/30 10:18:58;;;;;;;6.80;3.33;;;33.40;54.40;;;;;;5026843;28;20199;-78
2022/07/30 10:21:28;;;;;;;6.50;3.42;;;33.50;54.50;;;;;;5041829;28;20195;-78
2022/07/30 10:24:04;;;;;;;3.97;3.08;;;33.60;54.00;;;;;;5043840;28;20834;-78
2022/07/30 10:26:34;;;;;;;7.47;2.90;;;33.70;53.90;;;;;;5046538;28;20707;-76
2022/07/30 10:29:05;;;;;;;3.15;2.60;;;33.70;53.50;;;;;;5041853;28;20297;-77
2022/07/30 10:31:35;;;;;;;4.60;2.45;;;33.80;52.20;;;;;;5048904;28;20191;-77
2022/07/30 10:34:18;;;;;;;5.22;3.58;;;33.80;51.90;;;;;;5046270;28;20282;-80
2022/07/30 10:37:10;;;;;;;5.38;3.00;;;33.80;52.00;;;;;;5048008;28;20804;-79
2022/07/30 10:39:48;;;;;;;3.80;2.70;;;33.90;52.00;;;;;;5047412;28;20890;-74
2022/07/30 10:42:32;;;;;;;5.80;2.97;;;34.00;51.70;;;;;;5033704;28;20249;-75
2022/07/30 10:45:18;;;;;;;6.55;2.80;;;34.00;50.90;;;;;;5022381;28;20192;-76
2022/07/30 10:47:50;;;;;;;4.63;3.40;;;34.10;50.70;;;;;;5024409;28;20203;-75
2022/07/30 10:50:21;;;;;;;3.63;2.88;;;34.10;50.40;;;;;;5022672;28;20206;-75
2022/07/30 10:52:52;;;;;;;6.20;3.17;;;34.20;50.90;;;;;;5025082;28;20191;-75
2022/07/30 10:55:23;;;;;;;3.60;2.78;;;34.20;51.10;;;;;;5023947;28;20200;-76
2022/07/30 10:58:14;;;;;;;4.00;2.90;;;34.30;50.00;;;;;;5022087;28;20245;-74
2022/07/30 11:01:00;;;;;;;4.68;3.00;;;34.30;50.10;;;;;;5027210;28;20274;-75
2022/07/30 11:03:31;;;;;;;5.47;3.33;;;34.40;49.50;;;;;;5020531;28;20195;-75
2022/07/30 11:06:29;;;;;;;7.05;3.28;;;34.40;49.50;;;;;;5023788;28;20199;-75
2022/07/30 11:08:57;;;;;;;4.50;3.03;;;34.50;49.20;;;;;;5020620;28;22125;-76
2022/07/30 11:11:46;;;;;;;5.85;3.13;;;34.60;49.90;;;;;;5029593;28;20558;-75
2022/07/30 11:14:55;;;;;;;8.23;3.08;;;34.60;49.50;;;;;;5017989;28;20196;-76
2022/07/30 11:17:23;;;;;;;4.57;3.17;;;34.60;49.60;;;;;;5024741;28;20187;-76
2022/07/30 11:20:12;;;;;;;4.60;2.97;;;34.70;49.60;;;;;;5022978;28;20189;-76
2022/07/30 11:22:43;;;;;;;4.72;2.80;;;34.80;49.40;;;;;;5023781;28;20203;-77
2022/07/30 11:25:43;;;;;;;5.55;3.30;;;34.80;49.20;;;;;;5022609;28;20204;-76
2022/07/30 11:28:39;;;;;;;6.03;3.13;;;34.90;49.30;;;;;;5020383;28;20278;-77
2022/07/30 11:31:31;;;;;;;3.72;2.72;;;34.90;49.00;;;;;;5021429;28;20323;-77
2022/07/30 11:34:29;;;;;;;8.50;3.30;;;35.00;49.10;;;;;;5015955;28;20196;-76
2022/07/30 11:37:12;;;;;;;5.78;4.22;;;35.00;48.90;;;;;;5024606;28;20218;-78
2022/07/30 11:40:12;;;;;;;6.70;3.92;;;35.10;48.50;;;;;;5021282;28;20778;-76
2022/07/30 11:42:42;;;;;;;4.60;3.28;;;35.10;48.40;;;;;;5016234;28;20191;-77
2022/07/30 11:45:25;;;;;;;5.15;3.67;;;35.20;48.60;;;;;;5020424;28;20199;-78
2022/07/30 11:47:56;;;;;;;7.82;2.92;;;35.20;48.10;;;;;;5021579;28;20225;-78
2022/07/30 11:50:26;;;;;;;4.43;3.33;;;35.30;48.30;;;;;;5015642;28;20882;-77
2022/07/30 11:52:58;;;;;;;7.28;3.47;;;35.30;48.40;;;;;;5025182;28;20195;-77
2022/07/30 11:55:31;;;;;;;6.28;2.83;;;35.30;48.30;;;;;;5019431;28;20563;-77
2022/07/30 11:58:02;;;;;;;3.13;2.83;;;35.40;48.90;;;;;;5014530;28;20188;-80
2022/07/30 12:00:36;;;;;;;5.55;2.97;;;35.40;47.70;;;;;;5015352;28;20199;-77
2022/07/30 12:03:10;;;;;;;4.70;2.72;;;35.40;47.70;;;;;;5016830;28;20190;-76
2022/07/30 12:05:39;;;;;;;4.30;2.83;;;35.50;47.50;;;;;;5014605;28;20223;-76
2022/07/30 12:08:09;;;;;;;5.53;3.00;;;35.60;47.70;;;;;;5027638;28;20199;-75
2022/07/30 12:11:00;;;;;;;7.82;3.38;;;35.60;47.60;;;;;;5015865;28;20203;-75
2022/07/30 12:13:29;;;;;;;5.43;2.92;;;35.70;47.70;;;;;;5015739;28;20188;-75
2022/07/30 12:16:16;;;;;;;4.55;2.70;;;35.70;47.70;;;;;;5022354;28;21123;-75
2022/07/30 12:18:45;;;;;;;4.85;3.00;;;35.70;47.10;;;;;;5019981;28;20323;-75
2022/07/30 12:21:15;;;;;;;3.72;2.40;;;35.70;46.50;;;;;;5018498;28;20266;-75
2022/07/30 12:23:55;;;;;;;4.78;3.10;;;35.80;46.50;;;;;;5020133;28;20800;-75
2022/07/30 12:26:24;;;;;;;5.35;3.05;;;35.80;46.40;;;;;;5018300;28;20218;-75
2022/07/30 12:28:56;;;;;;;4.05;2.88;;;35.80;46.40;;;;;;5015401;28;20211;-74
2022/07/30 12:31:25;;;;;;;4.82;3.15;;;35.90;46.80;;;;;;5017223;28;20191;-75
2022/07/30 12:33:55;;;;;;;10.40;2.70;;;35.90;46.80;;;;;;5018657;28;20809;-76
2022/07/30 12:36:31;;;;;;;5.72;2.50;;;36.00;46.80;;;;;;5019828;28;20199;-75
2022/07/30 12:39:05;;;;;;;7.95;2.95;;;36.00;46.60;;;;;;5019441;28;20195;-74
2022/07/30 12:41:55;;;;;;;4.90;2.90;;;36.10;46.40;;;;;;5021802;28;20480;-76
2022/07/30 12:44:43;;;;;;;4.47;3.28;;;36.10;45.90;;;;;;5019457;28;20207;-75
2022/07/30 12:47:22;;;;;;;5.70;2.67;;;36.10;45.00;;;;;;5014833;28;20239;-75
2022/07/30 12:49:52;;;;;;;8.25;3.00;;;36.10;44.90;;;;;;5023444;28;20588;-73
2022/07/30 12:52:23;;;;;;;7.70;2.63;;;36.10;44.90;;;;;;5026861;28;20207;-75
2022/07/30 12:55:19;;;;;;;4.32;2.53;;;36.10;44.90;;;;;;5026907;28;20853;-75
2022/07/30 12:57:59;;;;;;;8.27;3.05;;;36.10;44.80;;;;;;5022756;28;20196;-75
2022/07/30 13:00:51;;;;;;;7.10;2.88;;;36.10;44.60;;;;;;5028789;28;20199;-76
2022/07/30 13:03:22;;;;;;;4.40;2.80;;;36.10;44.00;;;;;;5015499;28;20283;-74
2022/07/30 13:05:53;;;;;;;8.15;3.38;;;36.10;43.90;;;;;;5026784;28;20215;-75
2022/07/30 13:08:45;;;;;;;9.20;3.13;;;36.10;44.00;;;;;;5021410;28;20271;-75
2022/07/30 13:11:39;;;;;;;5.28;3.13;;;36.10;44.00;;;;;;5032249;28;20204;-76